sensor_id;sensor_type;location;lat;lon;timestamp;P1;durP1;ratioP1;P2;durP2;ratioP2
47882;SDS011;37739;50.350;7.578;2023-04-25T00:01:23;7.33;;;5.80;;
47882;SDS011;37739;50.350;7.578;2023-04-25T00:03:51;6.37;;;5.23;;
47882;SDS011;37739;50.350;7.578;2023-04-25T00:06:21;6.63;;;6.03;;
47882;SDS011;37739;50.350;7.578;2023-04-25T00:08:51;5.37;;;4.97;;
47882;SDS011;37739;50.350;7.578;2023-04-25T00:11:17;7.00;;;6.40;;
47882;SDS011;37739;50.350;7.578;2023-04-25T00:13:44;7.33;;;6.10;;
47882;SDS011;37739;50.350;7.578;2023-04-25T00:16:14;6.63;;;6.03;;
47882;SDS011;37739;50.350;7.578;2023-04-25T00:18:42;6.87;;;6.27;;
47882;SDS011;37739;50.350;7.578;2023-04-25T00:21:07;5.93;;;5.30;;
47882;SDS011;37739;50.350;7.578;2023-04-25T00:23:35;6.93;;;6.23;;
47882;SDS011;37739;50.350;7.578;2023-04-25T00:26:01;5.80;;;5.20;;
47882;SDS011;37739;50.350;7.578;2023-04-25T00:28:27;6.57;;;5.80;;
47882;SDS011;37739;50.350;7.578;2023-04-25T00:30:52;6.43;;;5.50;;
47882;SDS011;37739;50.350;7.578;2023-04-25T00:33:18;6.50;;;5.90;;
47882;SDS011;37739;50.350;7.578;2023-04-25T00:35:46;6.10;;;5.37;;
47882;SDS011;37739;50.350;7.578;2023-04-25T00:38:16;5.47;;;4.97;;
47882;SDS011;37739;50.350;7.578;2023-04-25T00:40:43;4.30;;;3.90;;
47882;SDS011;37739;50.350;7.578;2023-04-25T00:43:09;7.57;;;5.37;;
47882;SDS011;37739;50.350;7.578;2023-04-25T00:45:37;5.87;;;5.17;;
47882;SDS011;37739;50.350;7.578;2023-04-25T00:48:06;6.10;;;5.50;;
47882;SDS011;37739;50.350;7.578;2023-04-25T00:50:34;6.37;;;4.50;;
47882;SDS011;37739;50.350;7.578;2023-04-25T00:53:00;7.73;;;5.10;;
47882;SDS011;37739;50.350;7.578;2023-04-25T00:55:30;6.33;;;5.73;;
47882;SDS011;37739;50.350;7.578;2023-04-25T00:57:56;5.83;;;5.23;;
47882;SDS011;37739;50.350;7.578;2023-04-25T01:00:22;6.23;;;5.47;;
47882;SDS011;37739;50.350;7.578;2023-04-25T01:02:47;6.13;;;5.37;;
47882;SDS011;37739;50.350;7.578;2023-04-25T01:05:15;5.90;;;5.03;;
47882;SDS011;37739;50.350;7.578;2023-04-25T01:07:41;7.27;;;4.90;;
47882;SDS011;37739;50.350;7.578;2023-04-25T01:10:06;6.27;;;5.53;;
47882;SDS011;37739;50.350;7.578;2023-04-25T01:12:34;6.77;;;5.00;;
47882;SDS011;37739;50.350;7.578;2023-04-25T01:15:00;4.77;;;3.93;;
47882;SDS011;37739;50.350;7.578;2023-04-25T01:17:28;6.57;;;5.07;;
47882;SDS011;37739;50.350;7.578;2023-04-25T01:19:54;6.87;;;4.93;;
47882;SDS011;37739;50.350;7.578;2023-04-25T01:22:19;5.80;;;5.20;;
47882;SDS011;37739;50.350;7.578;2023-04-25T01:24:47;6.67;;;6.00;;
47882;SDS011;37739;50.350;7.578;2023-04-25T01:27:13;5.00;;;4.50;;
47882;SDS011;37739;50.350;7.578;2023-04-25T01:29:39;5.50;;;4.93;;
47882;SDS011;37739;50.350;7.578;2023-04-25T01:32:04;7.47;;;5.60;;
47882;SDS011;37739;50.350;7.578;2023-04-25T01:34:31;7.13;;;5.40;;
47882;SDS011;37739;50.350;7.578;2023-04-25T01:36:56;6.70;;;6.10;;
47882;SDS011;37739;50.350;7.578;2023-04-25T01:39:24;5.47;;;4.87;;
47882;SDS011;37739;50.350;7.578;2023-04-25T01:41:49;8.50;;;5.37;;
47882;SDS011;37739;50.350;7.578;2023-04-25T01:44:20;6.20;;;5.30;;
47882;SDS011;37739;50.350;7.578;2023-04-25T01:46:48;9.90;;;5.73;;
47882;SDS011;37739;50.350;7.578;2023-04-25T01:49:15;5.90;;;5.40;;
47882;SDS011;37739;50.350;7.578;2023-04-25T01:51:40;6.50;;;5.37;;
47882;SDS011;37739;50.350;7.578;2023-04-25T01:54:11;8.60;;;5.13;;
47882;SDS011;37739;50.350;7.578;2023-04-25T01:56:38;7.00;;;4.30;;
47882;SDS011;37739;50.350;7.578;2023-04-25T01:59:04;6.73;;;4.63;;
47882;SDS011;37739;50.350;7.578;2023-04-25T02:01:30;5.80;;;4.93;;
47882;SDS011;37739;50.350;7.578;2023-04-25T02:03:58;5.87;;;5.10;;
47882;SDS011;37739;50.350;7.578;2023-04-25T02:06:23;8.00;;;5.23;;
47882;SDS011;37739;50.350;7.578;2023-04-25T02:08:48;5.40;;;4.17;;
47882;SDS011;37739;50.350;7.578;2023-04-25T02:11:16;7.07;;;5.43;;
47882;SDS011;37739;50.350;7.578;2023-04-25T02:13:44;5.50;;;4.97;;
47882;SDS011;37739;50.350;7.578;2023-04-25T02:16:09;6.73;;;5.63;;
47882;SDS011;37739;50.350;7.578;2023-04-25T02:18:34;6.83;;;4.10;;
47882;SDS011;37739;50.350;7.578;2023-04-25T02:21:02;7.23;;;5.50;;
47882;SDS011;37739;50.350;7.578;2023-04-25T02:23:28;6.37;;;5.77;;
47882;SDS011;37739;50.350;7.578;2023-04-25T02:25:56;6.40;;;5.00;;
47882;SDS011;37739;50.350;7.578;2023-04-25T02:28:29;5.80;;;5.27;;
47882;SDS011;37739;50.350;7.578;2023-04-25T02:30:55;7.00;;;5.00;;
47882;SDS011;37739;50.350;7.578;2023-04-25T02:33:20;5.47;;;4.73;;
47882;SDS011;37739;50.350;7.578;2023-04-25T02:35:48;6.40;;;5.10;;
47882;SDS011;37739;50.350;7.578;2023-04-25T02:38:17;9.73;;;6.27;;
47882;SDS011;37739;50.350;7.578;2023-04-25T02:40:43;5.00;;;4.03;;
47882;SDS011;37739;50.350;7.578;2023-04-25T02:43:13;5.93;;;5.13;;
47882;SDS011;37739;50.350;7.578;2023-04-25T02:45:38;7.30;;;5.80;;
47882;SDS011;37739;50.350;7.578;2023-04-25T02:48:03;7.73;;;5.80;;
47882;SDS011;37739;50.350;7.578;2023-04-25T02:50:32;6.30;;;5.70;;
47882;SDS011;37739;50.350;7.578;2023-04-25T02:52:57;5.43;;;4.93;;
47882;SDS011;37739;50.350;7.578;2023-04-25T02:55:25;6.90;;;6.20;;
47882;SDS011;37739;50.350;7.578;2023-04-25T02:57:53;7.07;;;5.50;;
47882;SDS011;37739;50.350;7.578;2023-04-25T03:00:20;7.60;;;6.10;;
47882;SDS011;37739;50.350;7.578;2023-04-25T03:02:50;6.90;;;6.20;;
47882;SDS011;37739;50.350;7.578;2023-04-25T03:05:18;6.90;;;6.30;;
47882;SDS011;37739;50.350;7.578;2023-04-25T03:07:44;8.40;;;5.93;;
47882;SDS011;37739;50.350;7.578;2023-04-25T03:10:11;9.73;;;6.40;;
47882;SDS011;37739;50.350;7.578;2023-04-25T03:12:37;8.20;;;5.97;;
47882;SDS011;37739;50.350;7.578;2023-04-25T03:15:03;6.83;;;5.97;;
47882;SDS011;37739;50.350;7.578;2023-04-25T03:17:28;6.07;;;5.47;;
47882;SDS011;37739;50.350;7.578;2023-04-25T03:19:58;8.43;;;5.93;;
47882;SDS011;37739;50.350;7.578;2023-04-25T03:22:26;8.50;;;6.50;;
47882;SDS011;37739;50.350;7.578;2023-04-25T03:24:51;8.23;;;7.00;;
47882;SDS011;37739;50.350;7.578;2023-04-25T03:27:17;6.97;;;5.87;;
47882;SDS011;37739;50.350;7.578;2023-04-25T03:29:42;8.17;;;6.77;;
47882;SDS011;37739;50.350;7.578;2023-04-25T03:32:08;7.80;;;6.20;;
47882;SDS011;37739;50.350;7.578;2023-04-25T03:34:36;10.63;;;6.70;;
47882;SDS011;37739;50.350;7.578;2023-04-25T03:37:01;8.57;;;6.53;;
47882;SDS011;37739;50.350;7.578;2023-04-25T03:39:26;8.93;;;6.30;;
47882;SDS011;37739;50.350;7.578;2023-04-25T03:41:54;8.13;;;7.10;;
47882;SDS011;37739;50.350;7.578;2023-04-25T03:44:20;6.60;;;5.93;;
47882;SDS011;37739;50.350;7.578;2023-04-25T03:46:45;8.00;;;6.60;;
47882;SDS011;37739;50.350;7.578;2023-04-25T03:49:10;8.63;;;6.57;;
47882;SDS011;37739;50.350;7.578;2023-04-25T03:51:36;8.30;;;6.90;;
47882;SDS011;37739;50.350;7.578;2023-04-25T03:54:03;10.93;;;6.87;;
47882;SDS011;37739;50.350;7.578;2023-04-25T03:56:31;7.37;;;6.70;;
47882;SDS011;37739;50.350;7.578;2023-04-25T03:58:58;7.43;;;6.73;;
47882;SDS011;37739;50.350;7.578;2023-04-25T04:01:24;7.87;;;6.50;;
47882;SDS011;37739;50.350;7.578;2023-04-25T04:03:53;7.87;;;6.20;;
47882;SDS011;37739;50.350;7.578;2023-04-25T04:06:21;8.83;;;6.23;;
47882;SDS011;37739;50.350;7.578;2023-04-25T04:08:46;8.80;;;7.00;;
47882;SDS011;37739;50.350;7.578;2023-04-25T04:11:12;7.10;;;6.40;;
47882;SDS011;37739;50.350;7.578;2023-04-25T04:13:37;5.87;;;5.23;;
47882;SDS011;37739;50.350;7.578;2023-04-25T04:16:03;9.20;;;6.00;;
47882;SDS011;37739;50.350;7.578;2023-04-25T04:18:29;7.30;;;6.57;;
47882;SDS011;37739;50.350;7.578;2023-04-25T04:20:54;8.17;;;5.87;;
47882;SDS011;37739;50.350;7.578;2023-04-25T04:23:23;8.60;;;6.20;;
47882;SDS011;37739;50.350;7.578;2023-04-25T04:25:54;9.00;;;5.83;;
47882;SDS011;37739;50.350;7.578;2023-04-25T04:28:20;11.47;;;6.37;;
47882;SDS011;37739;50.350;7.578;2023-04-25T04:30:46;8.37;;;6.40;;
47882;SDS011;37739;50.350;7.578;2023-04-25T04:33:12;8.57;;;6.63;;
47882;SDS011;37739;50.350;7.578;2023-04-25T04:35:37;9.23;;;5.83;;
47882;SDS011;37739;50.350;7.578;2023-04-25T04:38:03;9.63;;;5.27;;
47882;SDS011;37739;50.350;7.578;2023-04-25T04:40:31;8.20;;;5.77;;
47882;SDS011;37739;50.350;7.578;2023-04-25T04:42:57;8.47;;;6.27;;
47882;SDS011;37739;50.350;7.578;2023-04-25T04:45:24;9.67;;;5.63;;
47882;SDS011;37739;50.350;7.578;2023-04-25T04:47:50;9.30;;;5.90;;
47882;SDS011;37739;50.350;7.578;2023-04-25T04:50:18;10.50;;;5.83;;
47882;SDS011;37739;50.350;7.578;2023-04-25T04:52:45;9.90;;;5.30;;
47882;SDS011;37739;50.350;7.578;2023-04-25T04:55:11;7.27;;;5.70;;
47882;SDS011;37739;50.350;7.578;2023-04-25T04:57:36;9.10;;;6.30;;
47882;SDS011;37739;50.350;7.578;2023-04-25T05:00:06;8.53;;;6.60;;
47882;SDS011;37739;50.350;7.578;2023-04-25T05:02:36;8.47;;;5.73;;
47882;SDS011;37739;50.350;7.578;2023-04-25T05:05:03;8.00;;;6.30;;
47882;SDS011;37739;50.350;7.578;2023-04-25T05:07:32;8.77;;;5.10;;
47882;SDS011;37739;50.350;7.578;2023-04-25T05:09:57;7.60;;;5.33;;
47882;SDS011;37739;50.350;7.578;2023-04-25T05:12:23;7.40;;;6.00;;
47882;SDS011;37739;50.350;7.578;2023-04-25T05:14:48;8.30;;;6.20;;
47882;SDS011;37739;50.350;7.578;2023-04-25T05:17:19;10.03;;;5.53;;
47882;SDS011;37739;50.350;7.578;2023-04-25T05:19:44;9.40;;;6.10;;
47882;SDS011;37739;50.350;7.578;2023-04-25T05:22:12;7.10;;;5.10;;
47882;SDS011;37739;50.350;7.578;2023-04-25T05:24:37;7.00;;;5.60;;
47882;SDS011;37739;50.350;7.578;2023-04-25T05:27:05;9.00;;;6.53;;
47882;SDS011;37739;50.350;7.578;2023-04-25T05:29:30;8.10;;;5.27;;
47882;SDS011;37739;50.350;7.578;2023-04-25T05:31:58;12.47;;;6.20;;
47882;SDS011;37739;50.350;7.578;2023-04-25T05:34:26;9.70;;;5.90;;
47882;SDS011;37739;50.350;7.578;2023-04-25T05:36:51;10.43;;;6.80;;
47882;SDS011;37739;50.350;7.578;2023-04-25T05:39:19;7.43;;;5.80;;
47882;SDS011;37739;50.350;7.578;2023-04-25T05:41:46;7.40;;;5.00;;
47882;SDS011;37739;50.350;7.578;2023-04-25T05:44:12;7.80;;;5.23;;
47882;SDS011;37739;50.350;7.578;2023-04-25T05:46:40;8.33;;;5.67;;
47882;SDS011;37739;50.350;7.578;2023-04-25T05:49:06;10.20;;;6.10;;
47882;SDS011;37739;50.350;7.578;2023-04-25T05:51:31;10.13;;;5.23;;
47882;SDS011;37739;50.350;7.578;2023-04-25T05:53:57;4.93;;;4.03;;
47882;SDS011;37739;50.350;7.578;2023-04-25T05:56:22;8.60;;;5.20;;
47882;SDS011;37739;50.350;7.578;2023-04-25T05:58:53;9.60;;;5.57;;
47882;SDS011;37739;50.350;7.578;2023-04-25T06:01:18;7.80;;;4.50;;
47882;SDS011;37739;50.350;7.578;2023-04-25T06:03:43;9.83;;;4.10;;
47882;SDS011;37739;50.350;7.578;2023-04-25T06:06:14;9.60;;;4.57;;
47882;SDS011;37739;50.350;7.578;2023-04-25T06:08:40;6.97;;;4.60;;
47882;SDS011;37739;50.350;7.578;2023-04-25T06:11:05;9.60;;;4.70;;
47882;SDS011;37739;50.350;7.578;2023-04-25T06:13:31;5.97;;;4.23;;
47882;SDS011;37739;50.350;7.578;2023-04-25T06:15:56;8.53;;;4.90;;
47882;SDS011;37739;50.350;7.578;2023-04-25T06:18:24;7.50;;;5.40;;
47882;SDS011;37739;50.350;7.578;2023-04-25T06:20:49;10.33;;;5.80;;
47882;SDS011;37739;50.350;7.578;2023-04-25T06:23:15;11.23;;;6.53;;
47882;SDS011;37739;50.350;7.578;2023-04-25T06:25:47;10.93;;;5.30;;
47882;SDS011;37739;50.350;7.578;2023-04-25T06:28:13;8.40;;;6.23;;
47882;SDS011;37739;50.350;7.578;2023-04-25T06:30:38;7.10;;;5.80;;
47882;SDS011;37739;50.350;7.578;2023-04-25T06:33:03;8.67;;;5.33;;
47882;SDS011;37739;50.350;7.578;2023-04-25T06:35:31;7.07;;;5.27;;
47882;SDS011;37739;50.350;7.578;2023-04-25T06:37:56;7.23;;;5.00;;
47882;SDS011;37739;50.350;7.578;2023-04-25T06:40:22;7.20;;;5.50;;
47882;SDS011;37739;50.350;7.578;2023-04-25T06:42:47;7.87;;;4.90;;
47882;SDS011;37739;50.350;7.578;2023-04-25T06:45:12;6.23;;;5.20;;
47882;SDS011;37739;50.350;7.578;2023-04-25T06:47:40;10.33;;;4.50;;
47882;SDS011;37739;50.350;7.578;2023-04-25T06:50:08;7.43;;;5.40;;
47882;SDS011;37739;50.350;7.578;2023-04-25T06:52:34;8.20;;;5.83;;
47882;SDS011;37739;50.350;7.578;2023-04-25T06:55:01;10.13;;;6.83;;
47882;SDS011;37739;50.350;7.578;2023-04-25T06:57:27;9.03;;;5.90;;
47882;SDS011;37739;50.350;7.578;2023-04-25T06:59:53;10.13;;;5.80;;
47882;SDS011;37739;50.350;7.578;2023-04-25T07:02:23;7.50;;;5.50;;
47882;SDS011;37739;50.350;7.578;2023-04-25T07:04:48;8.43;;;5.97;;
47882;SDS011;37739;50.350;7.578;2023-04-25T07:07:13;8.97;;;6.00;;
47882;SDS011;37739;50.350;7.578;2023-04-25T07:09:39;10.80;;;5.70;;
47882;SDS011;37739;50.350;7.578;2023-04-25T07:12:04;10.53;;;6.10;;
47882;SDS011;37739;50.350;7.578;2023-04-25T07:14:32;8.00;;;5.50;;
47882;SDS011;37739;50.350;7.578;2023-04-25T07:16:57;10.40;;;7.17;;
47882;SDS011;37739;50.350;7.578;2023-04-25T07:19:25;5.97;;;4.30;;
47882;SDS011;37739;50.350;7.578;2023-04-25T07:21:54;10.13;;;5.80;;
47882;SDS011;37739;50.350;7.578;2023-04-25T07:24:20;9.97;;;6.60;;
47882;SDS011;37739;50.350;7.578;2023-04-25T07:26:45;7.97;;;4.80;;
47882;SDS011;37739;50.350;7.578;2023-04-25T07:29:10;7.30;;;6.30;;
47882;SDS011;37739;50.350;7.578;2023-04-25T07:31:41;8.23;;;5.93;;
47882;SDS011;37739;50.350;7.578;2023-04-25T07:34:06;7.60;;;5.80;;
47882;SDS011;37739;50.350;7.578;2023-04-25T07:36:32;10.13;;;6.43;;
47882;SDS011;37739;50.350;7.578;2023-04-25T07:39:00;7.30;;;5.60;;
47882;SDS011;37739;50.350;7.578;2023-04-25T07:41:28;8.23;;;5.50;;
47882;SDS011;37739;50.350;7.578;2023-04-25T07:43:53;6.87;;;4.97;;
47882;SDS011;37739;50.350;7.578;2023-04-25T07:46:18;7.10;;;5.20;;
47882;SDS011;37739;50.350;7.578;2023-04-25T07:48:46;9.30;;;4.90;;
47882;SDS011;37739;50.350;7.578;2023-04-25T07:51:14;7.10;;;4.60;;
47882;SDS011;37739;50.350;7.578;2023-04-25T07:53:44;8.13;;;5.63;;
47882;SDS011;37739;50.350;7.578;2023-04-25T07:56:12;7.40;;;4.97;;
47882;SDS011;37739;50.350;7.578;2023-04-25T07:58:37;9.40;;;6.00;;
47882;SDS011;37739;50.350;7.578;2023-04-25T08:01:05;8.40;;;5.70;;
47882;SDS011;37739;50.350;7.578;2023-04-25T08:03:30;8.50;;;5.97;;
47882;SDS011;37739;50.350;7.578;2023-04-25T08:05:56;9.80;;;5.90;;
47882;SDS011;37739;50.350;7.578;2023-04-25T08:08:21;11.67;;;6.53;;
47882;SDS011;37739;50.350;7.578;2023-04-25T08:10:49;6.40;;;5.10;;
47882;SDS011;37739;50.350;7.578;2023-04-25T08:13:14;8.83;;;5.90;;
47882;SDS011;37739;50.350;7.578;2023-04-25T08:15:42;10.30;;;7.10;;
47882;SDS011;37739;50.350;7.578;2023-04-25T08:18:07;6.33;;;5.53;;
47882;SDS011;37739;50.350;7.578;2023-04-25T08:20:32;9.60;;;5.70;;
47882;SDS011;37739;50.350;7.578;2023-04-25T08:23:00;10.47;;;6.23;;
47882;SDS011;37739;50.350;7.578;2023-04-25T08:25:33;7.27;;;5.23;;
47882;SDS011;37739;50.350;7.578;2023-04-25T08:28:00;10.60;;;5.83;;
47882;SDS011;37739;50.350;7.578;2023-04-25T08:30:27;7.53;;;4.90;;
47882;SDS011;37739;50.350;7.578;2023-04-25T08:32:58;6.40;;;5.27;;
47882;SDS011;37739;50.350;7.578;2023-04-25T08:35:23;6.60;;;5.00;;
47882;SDS011;37739;50.350;7.578;2023-04-25T08:37:49;6.93;;;5.40;;
47882;SDS011;37739;50.350;7.578;2023-04-25T08:40:14;10.57;;;6.90;;
47882;SDS011;37739;50.350;7.578;2023-04-25T08:42:41;7.90;;;5.50;;
47882;SDS011;37739;50.350;7.578;2023-04-25T08:45:07;9.50;;;5.63;;
47882;SDS011;37739;50.350;7.578;2023-04-25T08:47:38;7.10;;;5.60;;
47882;SDS011;37739;50.350;7.578;2023-04-25T08:50:05;7.13;;;6.40;;
47882;SDS011;37739;50.350;7.578;2023-04-25T08:52:34;6.00;;;4.03;;
47882;SDS011;37739;50.350;7.578;2023-04-25T08:55:08;7.30;;;4.60;;
47882;SDS011;37739;50.350;7.578;2023-04-25T08:57:36;9.47;;;4.90;;
47882;SDS011;37739;50.350;7.578;2023-04-25T09:00:02;8.93;;;5.10;;
47882;SDS011;37739;50.350;7.578;2023-04-25T09:02:30;9.40;;;4.60;;
47882;SDS011;37739;50.350;7.578;2023-04-25T09:04:58;7.43;;;4.90;;
47882;SDS011;37739;50.350;7.578;2023-04-25T09:07:27;7.80;;;5.10;;
47882;SDS011;37739;50.350;7.578;2023-04-25T09:09:54;6.90;;;4.03;;
47882;SDS011;37739;50.350;7.578;2023-04-25T09:12:24;5.40;;;4.17;;
47882;SDS011;37739;50.350;7.578;2023-04-25T09:15:03;9.80;;;5.20;;
47882;SDS011;37739;50.350;7.578;2023-04-25T09:17:33;7.87;;;4.20;;
47882;SDS011;37739;50.350;7.578;2023-04-25T09:20:14;9.70;;;4.40;;
47882;SDS011;37739;50.350;7.578;2023-04-25T09:22:45;5.53;;;3.97;;
47882;SDS011;37739;50.350;7.578;2023-04-25T09:25:11;6.93;;;5.20;;
47882;SDS011;37739;50.350;7.578;2023-04-25T09:27:49;6.57;;;4.20;;
47882;SDS011;37739;50.350;7.578;2023-04-25T09:30:18;8.17;;;3.33;;
47882;SDS011;37739;50.350;7.578;2023-04-25T09:32:55;4.57;;;3.20;;
47882;SDS011;37739;50.350;7.578;2023-04-25T09:35:24;6.23;;;3.13;;
47882;SDS011;37739;50.350;7.578;2023-04-25T09:37:53;6.70;;;3.60;;
47882;SDS011;37739;50.350;7.578;2023-04-25T09:40:19;7.90;;;4.23;;
47882;SDS011;37739;50.350;7.578;2023-04-25T09:42:44;8.03;;;3.80;;
47882;SDS011;37739;50.350;7.578;2023-04-25T09:45:11;6.30;;;4.20;;
47882;SDS011;37739;50.350;7.578;2023-04-25T09:47:38;8.30;;;4.20;;
47882;SDS011;37739;50.350;7.578;2023-04-25T09:50:04;6.03;;;3.63;;
47882;SDS011;37739;50.350;7.578;2023-04-25T09:52:40;5.23;;;3.20;;
47882;SDS011;37739;50.350;7.578;2023-04-25T09:55:05;9.73;;;4.00;;
47882;SDS011;37739;50.350;7.578;2023-04-25T09:57:35;7.10;;;3.77;;
47882;SDS011;37739;50.350;7.578;2023-04-25T10:00:04;6.70;;;4.87;;
47882;SDS011;37739;50.350;7.578;2023-04-25T10:02:34;6.47;;;4.00;;
47882;SDS011;37739;50.350;7.578;2023-04-25T10:05:05;9.50;;;3.97;;
47882;SDS011;37739;50.350;7.578;2023-04-25T10:07:33;6.93;;;4.20;;
47882;SDS011;37739;50.350;7.578;2023-04-25T10:10:04;9.47;;;4.60;;
47882;SDS011;37739;50.350;7.578;2023-04-25T10:12:33;4.90;;;3.57;;
47882;SDS011;37739;50.350;7.578;2023-04-25T10:15:01;6.70;;;4.20;;
47882;SDS011;37739;50.350;7.578;2023-04-25T10:17:27;7.43;;;4.07;;
47882;SDS011;37739;50.350;7.578;2023-04-25T10:19:54;7.73;;;3.60;;
47882;SDS011;37739;50.350;7.578;2023-04-25T10:22:32;5.53;;;3.20;;
47882;SDS011;37739;50.350;7.578;2023-04-25T10:25:01;6.20;;;3.23;;
47882;SDS011;37739;50.350;7.578;2023-04-25T10:27:29;6.90;;;3.00;;
47882;SDS011;37739;50.350;7.578;2023-04-25T10:30:03;5.83;;;2.80;;
47882;SDS011;37739;50.350;7.578;2023-04-25T10:32:30;3.63;;;2.80;;
47882;SDS011;37739;50.350;7.578;2023-04-25T10:34:57;3.87;;;2.43;;
47882;SDS011;37739;50.350;7.578;2023-04-25T10:37:25;7.57;;;3.10;;
47882;SDS011;37739;50.350;7.578;2023-04-25T10:39:54;4.13;;;2.53;;
47882;SDS011;37739;50.350;7.578;2023-04-25T10:42:22;5.53;;;2.50;;
47882;SDS011;37739;50.350;7.578;2023-04-25T10:45:08;4.57;;;3.07;;
47882;SDS011;37739;50.350;7.578;2023-04-25T10:47:36;4.13;;;2.43;;
47882;SDS011;37739;50.350;7.578;2023-04-25T10:50:09;5.30;;;3.00;;
47882;SDS011;37739;50.350;7.578;2023-04-25T10:52:34;4.57;;;2.13;;
47882;SDS011;37739;50.350;7.578;2023-04-25T10:55:03;4.20;;;2.27;;
47882;SDS011;37739;50.350;7.578;2023-04-25T10:57:41;3.00;;;1.80;;
47882;SDS011;37739;50.350;7.578;2023-04-25T11:00:17;3.10;;;2.00;;
47882;SDS011;37739;50.350;7.578;2023-04-25T11:02:47;4.07;;;2.00;;
47882;SDS011;37739;50.350;7.578;2023-04-25T11:07:53;4.63;;;2.53;;
47882;SDS011;37739;50.350;7.578;2023-04-25T11:10:29;5.73;;;2.13;;
47882;SDS011;37739;50.350;7.578;2023-04-25T11:12:56;3.93;;;2.20;;
47882;SDS011;37739;50.350;7.578;2023-04-25T11:15:27;3.20;;;2.23;;
47882;SDS011;37739;50.350;7.578;2023-04-25T11:17:55;3.50;;;2.43;;
47882;SDS011;37739;50.350;7.578;2023-04-25T11:20:21;7.10;;;3.03;;
47882;SDS011;37739;50.350;7.578;2023-04-25T11:22:47;6.97;;;2.70;;
47882;SDS011;37739;50.350;7.578;2023-04-25T11:25:15;6.70;;;3.60;;
47882;SDS011;37739;50.350;7.578;2023-04-25T11:27:52;4.50;;;2.53;;
47882;SDS011;37739;50.350;7.578;2023-04-25T11:30:18;8.23;;;3.33;;
47882;SDS011;37739;50.350;7.578;2023-04-25T11:32:45;6.43;;;3.07;;
47882;SDS011;37739;50.350;7.578;2023-04-25T11:35:10;4.60;;;2.50;;
47882;SDS011;37739;50.350;7.578;2023-04-25T11:37:39;5.13;;;2.57;;
47882;SDS011;37739;50.350;7.578;2023-04-25T11:40:05;6.33;;;3.17;;
47882;SDS011;37739;50.350;7.578;2023-04-25T11:42:31;4.87;;;2.63;;
47882;SDS011;37739;50.350;7.578;2023-04-25T11:45:02;5.33;;;2.90;;
47882;SDS011;37739;50.350;7.578;2023-04-25T11:47:31;9.27;;;3.60;;
47882;SDS011;37739;50.350;7.578;2023-04-25T11:50:01;5.37;;;2.83;;
47882;SDS011;37739;50.350;7.578;2023-04-25T11:52:42;7.17;;;3.00;;
47882;SDS011;37739;50.350;7.578;2023-04-25T11:55:15;5.87;;;3.40;;
47882;SDS011;37739;50.350;7.578;2023-04-25T11:57:42;4.70;;;2.43;;
47882;SDS011;37739;50.350;7.578;2023-04-25T12:00:15;8.50;;;3.50;;
47882;SDS011;37739;50.350;7.578;2023-04-25T12:02:54;6.40;;;2.70;;
47882;SDS011;37739;50.350;7.578;2023-04-25T12:05:26;5.07;;;2.67;;
47882;SDS011;37739;50.350;7.578;2023-04-25T12:07:52;4.67;;;2.47;;
47882;SDS011;37739;50.350;7.578;2023-04-25T12:10:18;4.90;;;2.57;;
47882;SDS011;37739;50.350;7.578;2023-04-25T12:12:46;3.10;;;2.27;;
47882;SDS011;37739;50.350;7.578;2023-04-25T12:15:13;4.20;;;2.50;;
47882;SDS011;37739;50.350;7.578;2023-04-25T12:17:41;4.97;;;2.90;;
47882;SDS011;37739;50.350;7.578;2023-04-25T12:20:10;3.90;;;2.40;;
47882;SDS011;37739;50.350;7.578;2023-04-25T12:22:42;4.07;;;2.00;;
47882;SDS011;37739;50.350;7.578;2023-04-25T12:25:33;4.50;;;2.00;;
47882;SDS011;37739;50.350;7.578;2023-04-25T12:30:51;4.17;;;2.67;;
47882;SDS011;37739;50.350;7.578;2023-04-25T12:33:30;7.30;;;2.70;;
47882;SDS011;37739;50.350;7.578;2023-04-25T12:35:56;5.53;;;2.30;;
47882;SDS011;37739;50.350;7.578;2023-04-25T12:38:25;4.17;;;2.43;;
47882;SDS011;37739;50.350;7.578;2023-04-25T12:40:52;4.40;;;1.80;;
47882;SDS011;37739;50.350;7.578;2023-04-25T12:43:18;5.40;;;2.20;;
47882;SDS011;37739;50.350;7.578;2023-04-25T12:45:50;3.67;;;2.03;;
47882;SDS011;37739;50.350;7.578;2023-04-25T12:48:16;4.23;;;1.97;;
47882;SDS011;37739;50.350;7.578;2023-04-25T12:50:44;2.60;;;1.87;;
47882;SDS011;37739;50.350;7.578;2023-04-25T12:53:16;4.70;;;2.00;;
47882;SDS011;37739;50.350;7.578;2023-04-25T12:55:45;4.57;;;2.20;;
47882;SDS011;37739;50.350;7.578;2023-04-25T12:58:16;2.90;;;1.83;;
47882;SDS011;37739;50.350;7.578;2023-04-25T13:00:48;4.70;;;1.90;;
47882;SDS011;37739;50.350;7.578;2023-04-25T13:03:13;6.27;;;2.50;;
47882;SDS011;37739;50.350;7.578;2023-04-25T13:05:39;4.50;;;2.43;;
47882;SDS011;37739;50.350;7.578;2023-04-25T13:08:07;5.47;;;2.47;;
47882;SDS011;37739;50.350;7.578;2023-04-25T13:10:33;5.00;;;2.30;;
47882;SDS011;37739;50.350;7.578;2023-04-25T13:13:04;4.77;;;1.73;;
47882;SDS011;37739;50.350;7.578;2023-04-25T13:15:31;4.43;;;2.27;;
47882;SDS011;37739;50.350;7.578;2023-04-25T13:18:02;5.40;;;2.53;;
47882;SDS011;37739;50.350;7.578;2023-04-25T13:20:31;4.07;;;2.80;;
47882;SDS011;37739;50.350;7.578;2023-04-25T13:22:56;3.60;;;2.00;;
47882;SDS011;37739;50.350;7.578;2023-04-25T13:25:27;6.40;;;2.00;;
47882;SDS011;37739;50.350;7.578;2023-04-25T13:27:55;2.90;;;2.10;;
47882;SDS011;37739;50.350;7.578;2023-04-25T13:30:22;5.00;;;2.67;;
47882;SDS011;37739;50.350;7.578;2023-04-25T13:32:47;3.90;;;2.90;;
47882;SDS011;37739;50.350;7.578;2023-04-25T13:35:13;4.67;;;2.47;;
47882;SDS011;37739;50.350;7.578;2023-04-25T13:37:39;6.33;;;3.47;;
47882;SDS011;37739;50.350;7.578;2023-04-25T13:40:06;5.20;;;3.70;;
47882;SDS011;37739;50.350;7.578;2023-04-25T13:42:39;5.73;;;3.40;;
47882;SDS011;37739;50.350;7.578;2023-04-25T13:45:05;6.80;;;2.80;;
47882;SDS011;37739;50.350;7.578;2023-04-25T13:47:34;6.03;;;2.87;;
47882;SDS011;37739;50.350;7.578;2023-04-25T13:50:00;4.03;;;2.77;;
47882;SDS011;37739;50.350;7.578;2023-04-25T13:52:30;6.37;;;2.50;;
47882;SDS011;37739;50.350;7.578;2023-04-25T13:54:58;4.90;;;2.43;;
47882;SDS011;37739;50.350;7.578;2023-04-25T13:57:28;4.77;;;1.90;;
47882;SDS011;37739;50.350;7.578;2023-04-25T13:59:56;2.80;;;1.90;;
47882;SDS011;37739;50.350;7.578;2023-04-25T14:02:21;3.70;;;2.10;;
47882;SDS011;37739;50.350;7.578;2023-04-25T14:04:46;3.77;;;2.20;;
47882;SDS011;37739;50.350;7.578;2023-04-25T14:07:12;5.43;;;2.60;;
47882;SDS011;37739;50.350;7.578;2023-04-25T14:09:37;4.80;;;2.87;;
47882;SDS011;37739;50.350;7.578;2023-04-25T14:12:05;7.37;;;2.90;;
47882;SDS011;37739;50.350;7.578;2023-04-25T14:14:30;4.03;;;2.13;;
47882;SDS011;37739;50.350;7.578;2023-04-25T14:16:56;4.23;;;1.80;;
47882;SDS011;37739;50.350;7.578;2023-04-25T14:19:24;3.93;;;2.40;;
47882;SDS011;37739;50.350;7.578;2023-04-25T14:21:56;4.10;;;2.20;;
47882;SDS011;37739;50.350;7.578;2023-04-25T14:24:21;5.40;;;2.00;;
47882;SDS011;37739;50.350;7.578;2023-04-25T14:26:47;4.50;;;2.13;;
47882;SDS011;37739;50.350;7.578;2023-04-25T14:29:17;3.40;;;1.70;;
47882;SDS011;37739;50.350;7.578;2023-04-25T14:31:44;6.10;;;2.30;;
47882;SDS011;37739;50.350;7.578;2023-04-25T14:34:10;4.57;;;2.47;;
47882;SDS011;37739;50.350;7.578;2023-04-25T14:36:38;6.73;;;2.80;;
47882;SDS011;37739;50.350;7.578;2023-04-25T14:39:03;3.10;;;1.80;;
47882;SDS011;37739;50.350;7.578;2023-04-25T14:41:30;2.20;;;2.00;;
47882;SDS011;37739;50.350;7.578;2023-04-25T14:43:55;3.87;;;2.07;;
47882;SDS011;37739;50.350;7.578;2023-04-25T14:46:21;2.80;;;1.60;;
47882;SDS011;37739;50.350;7.578;2023-04-25T14:48:50;2.90;;;1.60;;
47882;SDS011;37739;50.350;7.578;2023-04-25T14:51:15;2.30;;;1.80;;
47882;SDS011;37739;50.350;7.578;2023-04-25T14:53:45;4.80;;;1.83;;
47882;SDS011;37739;50.350;7.578;2023-04-25T14:56:13;4.23;;;2.03;;